Friday, December 14, 2018, 6:57 PM EST
Back to Local

KISP, Islip Long Island Mac Art

Location: Ronkonkoma, NY, United States Lat: 40.8
Local Time: 6:57 PM EST (23:57 GMT) Lon: -73.1
Time Zone: US/Eastern Elev: 98 ft

Show me the last for .
Show Decoded

2018-12-14 17:56 METAR KISP 142256Z 13003KT 10SM -RA BKN016 BKN029 OVC070 08/08 A3035 RMK AO2
                 RAB53 SLP278 P0000 T00830078 =
2018-12-14 16:56 METAR KISP 142156Z 14006KT 10SM FEW020 OVC070 09/07 A3037 RMK AO2 SLP283
                 T00890072 =
2018-12-14 16:38 METAR KISP 142138Z 13004KT 10SM FEW020 OVC065 09/07 A3037 RMK AO2 T00890072 =
2018-12-14 15:56 METAR KISP 142056Z 13007KT 10SM SCT013 BKN020 OVC080 09/07 A3037 RMK AO2 SLP285
                 T00940072 58004 =
2018-12-14 14:56 METAR KISP 141956Z 14007KT 10SM BKN018 BKN080 OVC250 09/07 A3038 RMK AO2 SLP289
                 T00940067 =
2018-12-14 13:56 METAR KISP 141856Z 15007KT 10SM OVC021 10/07 A3039 RMK AO2 SLP290 T01000067 =
2018-12-14 12:56 METAR KISP 141756Z 14011KT 10SM SCT018 BKN025 OVC060 10/06 A3038 RMK AO2 SLP289
                 T01000061 10100 20022 56025 =
2018-12-14 11:56 METAR KISP 141656Z 13010KT 10SM BKN020 BKN060 OVC250 09/06 A3042 RMK AO2 SLP300
                 BKN020 V SCT T00940056 =
2018-12-14 11:50 METAR KISP 141650Z 13010KT 10SM BKN020 BKN060 OVC250 09/06 A3042 RMK AO2 BKN020
                 V SCT =
2018-12-14 10:56 METAR KISP 141556Z 14009KT 10SM FEW035 BKN060 OVC250 09/05 A3046 RMK AO2 SLP315
                 T00940050 =
2018-12-14 09:56 METAR KISP 141456Z 13007KT 10SM SCT065 OVC250 08/04 A3050 RMK AO2 SLP329
                 T00830044 51008 =
2018-12-14 08:56 METAR KISP 141356Z 10003KT 10SM SCT023 BKN250 06/04 A3050 RMK AO2 SLP328
                 T00560039 =
2018-12-14 08:48 METAR KISP 141348Z 08004KT 10SM SCT023 BKN250 06/04 A3049 RMK AO2 T00560039 =
2018-12-14 07:56 METAR KISP 141256Z 08004KT 10SM BKN023 BKN150 04/03 A3049 RMK AO2 SLP325
                 T00390028 =
2018-12-14 07:26 METAR KISP 141226Z 07004KT 10SM BKN023 BKN150 03/02 A3048 RMK AO2 T00280017 =
2018-12-14 06:56 METAR KISP 141156Z 08005KT 10SM SCT025 SCT150 02/02 A3048 RMK AO2 SLP320
                 T00220017 10061 20006 55000 =
2018-12-14 05:56 METAR KISP 141056Z 08003KT 10SM FEW020 02/01 A3047 RMK AO2 SLP319 T00170011 =
2018-12-14 04:56 METAR KISP 140956Z AUTO 06004KT 10SM FEW020 01/01 A3047 RMK AO2 SLP319 T00110011
                 =
2018-12-14 03:56 METAR KISP 140856Z AUTO 07005KT 10SM FEW018 02/01 A3048 RMK AO2 SLP321 T00220011
                 55002 =
2018-12-14 02:56 METAR KISP 140756Z AUTO 10007KT 10SM CLR 04/02 A3047 RMK AO2 SLP320 T00390022 =
2018-12-14 01:56 METAR KISP 140656Z AUTO 09009KT 10SM CLR 05/03 A3048 RMK AO2 SLP322 T00500028 =
2018-12-14 01:11 METAR KISP 140611Z AUTO 09007KT 10SM SCT020 SCT027 OVC038 06/03 A3048 RMK AO2
                 T00610033 =
2018-12-14 00:56 METAR KISP 140556Z AUTO 08007KT 10SM BKN019 BKN028 OVC034 06/03 A3048 RMK AO2
                 SLP323 T00610033 10061 20050 50001 =
2018-12-13 23:56 METAR KISP 140456Z 10010KT 10SM OVC020 06/03 A3049 RMK AO2 SLP326 LAST T00610033
                 400611011 =
2018-12-13 22:56 METAR KISP 140356Z 11009KT 10SM FEW008 BKN016 OVC034 06/03 A3049 RMK AO2 SLP324
                 T00610033 =
2018-12-13 21:56 METAR KISP 140256Z 10008KT 10SM FEW008 OVC014 06/03 A3048 RMK AO2 SLP322
                 T00610033 50006 =
2018-12-13 20:56 METAR KISP 140156Z 09005KT 10SM FEW008 OVC013 06/03 A3048 RMK AO2 SLP323
                 T00560033 =
2018-12-13 19:56 METAR KISP 140056Z 09008KT 10SM FEW008 OVC013 05/03 A3047 RMK AO2 SLP319
                 T00500028 =

Support USWX by starting your Amazon purchase here.